Time;durP1;ratioP1;P1;durP2;ratioP2;P2;SDS_P1;SDS_P2;PMS_P1;PMS_P2;Temp;Humidity;BMP_temperature;BMP_pressure;BME280_temperature;BME280_humidity;BME280_pressure;Samples;Min_cycle;Max_cycle;Signal;HPM_P1;HPM_P2
2023/03/10 00:01:45;;;;;;;4.67;3.23;;;10.10;35.30;;;;;;10361001;28;20233;-71
2023/03/10 00:06:48;;;;;;;5.67;3.40;;;10.10;35.10;;;;;;10357246;28;20249;-71
2023/03/10 00:11:52;;;;;;;4.00;2.90;;;10.10;35.10;;;;;;10356715;28;20273;-71
2023/03/10 00:16:55;;;;;;;3.33;2.77;;;10.20;35.30;;;;;;10355639;28;20226;-71
2023/03/10 00:21:59;;;;;;;4.13;2.63;;;10.20;35.10;;;;;;10358026;28;20366;-72
2023/03/10 00:27:03;;;;;;;5.37;2.60;;;10.20;35.00;;;;;;10359587;28;20682;-73
2023/03/10 00:32:07;;;;;;;3.70;2.13;;;10.20;35.20;;;;;;10356068;28;20225;-72
2023/03/10 00:37:10;;;;;;;4.23;2.50;;;10.20;35.30;;;;;;10355335;28;20741;-72
2023/03/10 00:42:15;;;;;;;4.50;2.40;;;10.30;35.40;;;;;;10358891;28;20245;-72
2023/03/10 00:47:18;;;;;;;4.33;2.33;;;10.40;35.40;;;;;;10357070;28;20229;-73
2023/03/10 00:52:21;;;;;;;3.60;2.30;;;10.50;35.30;;;;;;10358423;28;20222;-73
2023/03/10 00:57:26;;;;;;;3.07;2.13;;;10.60;35.10;;;;;;10358182;28;20616;-73
2023/03/10 01:02:29;;;;;;;3.33;2.30;;;10.70;35.10;;;;;;10358117;28;20254;-73
2023/03/10 01:07:32;;;;;;;3.13;2.30;;;10.80;34.80;;;;;;10357262;28;20230;-72
2023/03/10 01:12:36;;;;;;;2.83;2.23;;;10.80;34.60;;;;;;10358156;28;20226;-73
2023/03/10 01:17:40;;;;;;;4.17;2.20;;;10.80;34.60;;;;;;10358067;28;20684;-73
2023/03/10 01:22:43;;;;;;;3.80;2.17;;;10.80;34.60;;;;;;10359751;28;20230;-73
2023/03/10 01:27:47;;;;;;;3.10;2.03;;;10.70;34.50;;;;;;10356315;28;20238;-73
2023/03/10 01:32:51;;;;;;;3.13;2.17;;;10.70;34.60;;;;;;10357506;28;20276;-73
2023/03/10 01:37:54;;;;;;;2.50;2.17;;;10.60;34.40;;;;;;10356697;28;20312;-72
2023/03/10 01:43:17;;;;;;;2.60;2.20;;;10.70;34.50;;;;;;10355819;28;20230;-72
2023/03/10 01:48:23;;;;;;;3.43;2.37;;;10.60;34.60;;;;;;10357331;28;20248;-73
2023/03/10 01:53:28;;;;;;;3.30;2.10;;;10.60;34.60;;;;;;10356718;28;20230;-73
2023/03/10 01:58:37;;;;;;;2.07;1.90;;;10.60;34.70;;;;;;10358342;28;20272;-72
2023/03/10 02:03:46;;;;;;;3.17;2.23;;;10.60;34.90;;;;;;10356946;28;20509;-72
2023/03/10 02:08:52;;;;;;;4.33;2.07;;;10.70;34.80;;;;;;10355892;28;20237;-73
2023/03/10 02:13:57;;;;;;;3.20;2.00;;;10.80;34.60;;;;;;10356793;28;20237;-72
2023/03/10 02:19:00;;;;;;;7.77;2.33;;;10.80;34.60;;;;;;10361670;28;20234;-73
2023/03/10 02:24:09;;;;;;;3.10;1.93;;;10.70;34.50;;;;;;10364110;28;20226;-73
2023/03/10 02:29:20;;;;;;;2.40;1.80;;;10.70;34.50;;;;;;10363274;28;20237;-73
2023/03/10 02:34:24;;;;;;;2.73;1.80;;;10.70;34.50;;;;;;10362982;28;20231;-73
2023/03/10 02:39:27;;;;;;;2.40;2.00;;;10.60;34.40;;;;;;10363941;28;20226;-72
2023/03/10 02:44:32;;;;;;;3.90;2.20;;;10.60;34.40;;;;;;10361874;28;20234;-72
2023/03/10 02:49:37;;;;;;;3.47;2.50;;;10.60;34.60;;;;;;10362769;28;20594;-73
2023/03/10 02:54:40;;;;;;;3.83;2.70;;;10.60;34.60;;;;;;10364362;28;20233;-72
2023/03/10 02:59:44;;;;;;;3.13;2.50;;;10.70;34.70;;;;;;10360474;28;20226;-72
2023/03/10 03:04:48;;;;;;;4.27;3.23;;;10.70;34.80;;;;;;10360445;28;20273;-72
2023/03/10 03:09:51;;;;;;;4.83;2.33;;;10.80;34.90;;;;;;10358671;28;20234;-72
2023/03/10 03:14:55;;;;;;;3.40;2.17;;;10.80;34.70;;;;;;10364128;28;20226;-72
2023/03/10 03:19:59;;;;;;;3.20;2.07;;;10.80;34.60;;;;;;10360319;28;20222;-73
2023/03/10 03:25:02;;;;;;;3.80;2.40;;;10.80;34.60;;;;;;10358194;28;21016;-72
2023/03/10 03:30:09;;;;;;;2.80;1.87;;;10.80;34.60;;;;;;10359493;28;20230;-72
2023/03/10 03:35:15;;;;;;;3.97;1.83;;;10.80;34.60;;;;;;10361359;28;20653;-72
2023/03/10 03:40:18;;;;;;;4.20;2.00;;;10.80;34.60;;;;;;10361955;28;20218;-73
2023/03/10 03:45:24;;;;;;;2.50;1.87;;;10.80;34.60;;;;;;10358571;28;20234;-72
2023/03/10 03:50:28;;;;;;;3.53;2.00;;;10.70;34.60;;;;;;10360211;28;20229;-72
2023/03/10 03:55:31;;;;;;;5.50;2.40;;;10.70;34.70;;;;;;10357988;28;20265;-72
2023/03/10 04:00:37;;;;;;;3.60;2.20;;;10.70;34.50;;;;;;10358065;28;20230;-72
2023/03/10 04:05:40;;;;;;;3.20;2.07;;;10.70;34.70;;;;;;10360912;28;20230;-73
2023/03/10 04:10:49;;;;;;;2.27;1.97;;;10.70;34.80;;;;;;10357266;28;20241;-73
2023/03/10 04:15:57;;;;;;;2.53;1.80;;;10.60;34.80;;;;;;10358350;28;20285;-73
2023/03/10 04:21:00;;;;;;;2.60;1.83;;;10.60;35.00;;;;;;10357962;28;20230;-72
2023/03/10 04:26:07;;;;;;;3.63;1.73;;;10.60;35.00;;;;;;10359332;28;20238;-72
2023/03/10 04:31:15;;;;;;;4.37;1.80;;;10.60;35.20;;;;;;10357795;28;20230;-72
2023/03/10 04:36:19;;;;;;;2.30;1.70;;;10.70;35.30;;;;;;10359227;28;20241;-72
2023/03/10 04:41:23;;;;;;;2.33;1.80;;;10.70;35.10;;;;;;10359595;28;20698;-73
2023/03/10 04:46:27;;;;;;;2.87;1.70;;;10.70;35.00;;;;;;10359274;28;20234;-72
2023/03/10 04:51:31;;;;;;;2.70;1.90;;;10.70;35.10;;;;;;10358088;28;20234;-73
2023/03/10 04:56:34;;;;;;;2.53;1.97;;;10.70;35.10;;;;;;10358473;28;20608;-72
2023/03/10 05:01:38;;;;;;;2.43;1.80;;;10.80;35.30;;;;;;10358302;28;20226;-72
2023/03/10 05:06:41;;;;;;;2.10;1.40;;;10.80;35.50;;;;;;10357306;28;20313;-72
2023/03/10 05:11:45;;;;;;;1.33;1.13;;;11.00;36.00;;;;;;10353398;28;20585;-72
2023/03/10 05:16:49;;;;;;;1.37;1.10;;;11.10;36.30;;;;;;10358185;28;20226;-72
2023/03/10 05:21:53;;;;;;;3.47;1.47;;;11.40;36.50;;;;;;10355879;28;20714;-72
2023/03/10 05:26:56;;;;;;;2.47;1.60;;;11.60;36.60;;;;;;10357980;28;20225;-72
2023/03/10 05:32:01;;;;;;;2.53;1.50;;;11.90;36.50;;;;;;10358646;28;20226;-73
2023/03/10 05:37:04;;;;;;;2.97;1.30;;;12.10;36.40;;;;;;10357417;28;22143;-72
2023/03/10 05:42:07;;;;;;;1.07;0.90;;;12.20;36.30;;;;;;10358959;28;20228;-72
2023/03/10 05:47:12;;;;;;;1.37;1.00;;;12.30;36.20;;;;;;10355670;28;20238;-72
2023/03/10 05:52:16;;;;;;;1.30;1.10;;;12.30;36.60;;;;;;10363075;28;20226;-72
2023/03/10 05:57:20;;;;;;;2.03;1.20;;;12.40;36.60;;;;;;10365988;28;20232;-72
2023/03/10 06:02:24;;;;;;;0.90;0.90;;;12.40;36.70;;;;;;10363432;23;20242;-70
2023/03/10 06:07:27;;;;;;;1.70;1.00;;;12.40;36.90;;;;;;10358623;28;20230;-70
2023/03/10 06:12:32;;;;;;;1.17;1.03;;;12.40;36.60;;;;;;10350842;28;20718;-71
2023/03/10 06:17:37;;;;;;;1.77;1.67;;;12.40;36.90;;;;;;10357036;28;20737;-71
2023/03/10 06:22:40;;;;;;;1.97;1.57;;;12.40;36.80;;;;;;10354706;28;20385;-72
2023/03/10 06:27:44;;;;;;;1.83;1.40;;;12.40;36.80;;;;;;10354769;28;20223;-72
2023/03/10 06:32:49;;;;;;;3.00;2.63;;;12.40;36.70;;;;;;10355397;28;20235;-72
2023/03/10 06:37:52;;;;;;;2.37;2.00;;;12.50;36.90;;;;;;10351746;28;20950;-72
2023/03/10 06:42:55;;;;;;;1.57;1.30;;;12.50;36.60;;;;;;10352011;28;20229;-75
2023/03/10 06:47:59;;;;;;;1.30;1.20;;;12.60;36.60;;;;;;10352042;28;20231;-72
2023/03/10 06:53:03;;;;;;;2.30;2.10;;;12.60;36.60;;;;;;10352636;28;20611;-72
2023/03/10 06:58:06;;;;;;;1.80;1.70;;;12.60;36.50;;;;;;10354489;28;20229;-72
2023/03/10 07:03:11;;;;;;;1.60;1.50;;;12.60;36.60;;;;;;10354039;28;20690;-72
2023/03/10 07:08:14;;;;;;;1.83;1.60;;;12.70;36.60;;;;;;10354716;28;20241;-72
2023/03/10 07:13:18;;;;;;;1.40;1.30;;;12.60;36.60;;;;;;10357772;28;20301;-72
2023/03/10 07:18:26;;;;;;;1.47;1.37;;;12.70;36.80;;;;;;10359471;28;20645;-72
2023/03/10 07:23:29;;;;;;;1.20;1.10;;;12.70;37.10;;;;;;10353454;28;20231;-72
2023/03/10 07:28:32;;;;;;;0.83;0.83;;;12.80;37.00;;;;;;10356479;28;20237;-72
2023/03/10 07:33:38;;;;;;;1.17;1.10;;;13.00;37.00;;;;;;10358609;28;20244;-72
2023/03/10 07:38:41;;;;;;;1.00;1.00;;;13.20;36.90;;;;;;10361138;28;20230;-72
2023/03/10 07:43:44;;;;;;;0.90;0.90;;;13.40;37.10;;;;;;10353708;28;20310;-72
2023/03/10 07:48:48;;;;;;;0.77;0.77;;;13.60;37.00;;;;;;10357744;28;20619;-69
2023/03/10 07:53:52;;;;;;;1.23;0.70;;;13.80;36.60;;;;;;10353729;28;20226;-69
2023/03/10 07:58:55;;;;;;;0.70;0.70;;;14.00;36.40;;;;;;10351783;28;20222;-69
2023/03/10 08:03:59;;;;;;;0.77;0.70;;;14.10;36.30;;;;;;10354425;28;20226;-69
2023/03/10 08:09:03;;;;;;;1.10;0.83;;;14.30;36.00;;;;;;10351540;28;20633;-70
2023/03/10 08:14:06;;;;;;;0.80;0.80;;;14.40;36.10;;;;;;10358888;28;20284;-69
2023/03/10 08:19:11;;;;;;;0.80;0.80;;;14.50;35.70;;;;;;10352866;28;20237;-72
2023/03/10 08:24:14;;;;;;;1.43;1.20;;;14.60;35.40;;;;;;10355901;28;20622;-73
2023/03/10 08:29:17;;;;;;;1.23;0.90;;;14.60;35.70;;;;;;10355481;28;20227;-72
2023/03/10 08:34:22;;;;;;;0.87;0.87;;;14.70;35.30;;;;;;10351481;28;20265;-72
2023/03/10 08:39:25;;;;;;;1.70;1.20;;;14.80;35.20;;;;;;10352786;28;20605;-72
2023/03/10 08:44:29;;;;;;;0.90;0.90;;;14.90;35.40;;;;;;10357431;28;20714;-72
2023/03/10 08:49:34;;;;;;;1.80;1.30;;;14.90;35.30;;;;;;10352360;28;20580;-72
2023/03/10 08:54:37;;;;;;;0.90;0.90;;;14.90;35.40;;;;;;10355132;28;20230;-72
2023/03/10 08:59:40;;;;;;;1.10;1.00;;;14.90;35.20;;;;;;10348138;28;20229;-73
2023/03/10 09:04:45;;;;;;;1.27;1.17;;;15.00;35.40;;;;;;10352471;28;20280;-72
2023/03/10 09:09:48;;;;;;;1.30;1.10;;;15.00;35.20;;;;;;10354347;28;20230;-72
2023/03/10 09:14:51;;;;;;;1.43;1.00;;;15.20;35.30;;;;;;10350730;28;20237;-73
2023/03/10 09:19:55;;;;;;;1.10;1.00;;;15.30;35.00;;;;;;10352063;28;20234;-72
2023/03/10 09:24:58;;;;;;;1.33;1.23;;;15.40;34.60;;;;;;10353399;28;20655;-73
2023/03/10 09:30:02;;;;;;;2.53;2.23;;;15.50;34.60;;;;;;10361179;28;20381;-72
2023/03/10 09:35:07;;;;;;;1.20;1.10;;;15.70;34.70;;;;;;10354846;28;20509;-72
2023/03/10 09:40:15;;;;;;;0.90;0.90;;;15.80;33.80;;;;;;10360432;28;20229;-72
2023/03/10 09:45:25;;;;;;;1.00;1.00;;;16.00;33.40;;;;;;10353028;28;20240;-72
2023/03/10 09:50:34;;;;;;;0.80;0.80;;;16.20;32.90;;;;;;10357652;28;20234;-73
2023/03/10 09:55:40;;;;;;;1.17;0.80;;;16.20;31.90;;;;;;10359967;28;20235;-72
2023/03/10 10:00:50;;;;;;;0.90;0.80;;;16.30;32.30;;;;;;10359938;28;20218;-72
2023/03/10 10:05:56;;;;;;;1.87;0.97;;;16.20;32.50;;;;;;10361013;28;20593;-72
2023/03/10 10:11:01;;;;;;;0.80;0.70;;;16.20;32.30;;;;;;10365198;28;20234;-71
2023/03/10 10:16:14;;;;;;;0.63;0.60;;;16.10;33.10;;;;;;10350959;28;20260;-71
2023/03/10 10:21:42;;;;;;;0.80;0.80;;;15.70;33.60;;;;;;10359330;28;20231;-72
2023/03/10 10:26:46;;;;;;;0.63;0.60;;;15.20;34.10;;;;;;10355382;28;20237;-70
2023/03/10 10:32:09;;;;;;;0.60;0.60;;;14.70;33.60;;;;;;10357876;28;20234;-71
2023/03/10 10:37:28;;;;;;;0.70;0.70;;;14.30;34.70;;;;;;10358696;28;20226;-72
2023/03/10 10:42:33;;;;;;;0.60;0.60;;;14.10;35.00;;;;;;10355579;28;20233;-72
2023/03/10 10:47:46;;;;;;;1.07;0.80;;;14.10;35.20;;;;;;10357422;28;20235;-72
2023/03/10 10:53:12;;;;;;;0.60;0.60;;;14.10;34.80;;;;;;10357540;28;20234;-72
2023/03/10 10:58:29;;;;;;;0.70;0.70;;;14.20;34.00;;;;;;10356520;28;20230;-72
2023/03/10 11:03:35;;;;;;;0.70;0.70;;;14.30;33.80;;;;;;10360493;28;20229;-72
2023/03/10 11:08:43;;;;;;;1.53;0.63;;;14.30;34.00;;;;;;10356429;28;20281;-72
2023/03/10 11:14:06;;;;;;;0.50;0.50;;;14.30;34.40;;;;;;10356010;28;20725;-72
2023/03/10 11:19:17;;;;;;;0.63;0.57;;;14.50;33.70;;;;;;10354480;28;20869;-74
2023/03/10 11:24:31;;;;;;;1.10;0.60;;;14.60;33.70;;;;;;10351155;28;20222;-73
2023/03/10 11:29:47;;;;;;;0.83;0.60;;;14.80;33.80;;;;;;10357119;28;20226;-73
2023/03/10 11:34:52;;;;;;;1.03;0.60;;;14.90;33.30;;;;;;10353946;28;20753;-73
2023/03/10 11:40:10;;;;;;;0.50;0.50;;;15.00;33.60;;;;;;10351472;28;20237;-73
2023/03/10 11:45:30;;;;;;;0.70;0.70;;;15.20;32.80;;;;;;10354949;28;20248;-73
2023/03/10 11:50:41;;;;;;;1.73;0.73;;;15.30;32.70;;;;;;10345466;28;20703;-73
2023/03/10 11:55:46;;;;;;;1.00;0.70;;;15.40;32.50;;;;;;10353821;28;20299;-73
2023/03/10 12:00:51;;;;;;;1.73;0.90;;;15.40;33.50;;;;;;10349487;28;20337;-73
2023/03/10 12:05:57;;;;;;;0.80;0.70;;;15.50;33.20;;;;;;10345971;28;20227;-73
2023/03/10 12:11:04;;;;;;;0.63;0.60;;;15.60;32.70;;;;;;10352136;28;20237;-73
2023/03/10 12:16:13;;;;;;;3.00;0.70;;;15.70;32.70;;;;;;10349926;28;20666;-71
2023/03/10 12:21:19;;;;;;;1.17;0.80;;;15.80;32.80;;;;;;10350221;28;20280;-78
2023/03/10 12:26:59;;;;;;;0.63;0.63;;;15.80;32.40;;;;;;10353116;28;20233;-70
2023/03/10 12:32:03;;;;;;;1.20;0.70;;;15.70;31.70;;;;;;10353123;28;20599;-70
2023/03/10 12:37:08;;;;;;;0.60;0.60;;;15.60;32.10;;;;;;10349612;28;20236;-71
2023/03/10 12:42:29;;;;;;;0.90;0.70;;;15.50;31.50;;;;;;10348732;28;20230;-71
2023/03/10 12:47:55;;;;;;;0.67;0.67;;;15.40;32.50;;;;;;10340158;28;20300;-71
2023/03/10 12:53:07;;;;;;;0.80;0.70;;;15.50;32.50;;;;;;10345162;28;20241;-71
2023/03/10 12:58:17;;;;;;;0.60;0.60;;;15.60;32.10;;;;;;10353130;28;20233;-71
2023/03/10 13:03:29;;;;;;;0.83;0.60;;;15.70;32.20;;;;;;10353398;28;20601;-70
2023/03/10 13:08:42;;;;;;;0.57;0.57;;;15.70;30.60;;;;;;10351172;28;20237;-70
2023/03/10 13:13:51;;;;;;;0.87;0.60;;;15.80;31.50;;;;;;10355242;28;20241;-71
2023/03/10 13:18:54;;;;;;;0.57;0.57;;;15.90;31.80;;;;;;10354862;28;20230;-70
2023/03/10 13:23:59;;;;;;;0.90;0.60;;;16.00;31.70;;;;;;10343728;28;20222;-70
2023/03/10 13:29:04;;;;;;;0.60;0.60;;;16.00;31.60;;;;;;10346870;28;20234;-71
2023/03/10 13:34:18;;;;;;;0.67;0.60;;;15.90;30.50;;;;;;10349312;28;20873;-70
2023/03/10 13:39:23;;;;;;;0.60;0.60;;;15.90;30.70;;;;;;10350109;28;20776;-70
2023/03/10 13:44:34;;;;;;;0.70;0.70;;;15.80;31.10;;;;;;10348055;28;20795;-70
2023/03/10 13:49:37;;;;;;;0.60;0.60;;;15.80;30.30;;;;;;10349227;28;20241;-71
2023/03/10 13:54:41;;;;;;;0.77;0.60;;;15.80;31.40;;;;;;10349129;28;20249;-70
2023/03/10 13:59:47;;;;;;;0.70;0.70;;;15.80;30.60;;;;;;10350812;28;20349;-70
2023/03/10 14:04:51;;;;;;;1.50;0.60;;;15.70;30.40;;;;;;10350653;28;20249;-71
2023/03/10 14:10:19;;;;;;;0.60;0.60;;;15.60;30.60;;;;;;10350816;28;20260;-70
2023/03/10 14:15:26;;;;;;;0.80;0.80;;;15.50;30.80;;;;;;10355453;28;20234;-71
2023/03/10 14:20:30;;;;;;;0.57;0.57;;;15.40;30.90;;;;;;10357115;28;20230;-70
2023/03/10 14:25:34;;;;;;;3.30;0.50;;;15.40;31.00;;;;;;10356442;28;20602;-70
2023/03/10 14:30:39;;;;;;;0.50;0.50;;;15.30;31.10;;;;;;10356279;28;20241;-70
2023/03/10 14:35:44;;;;;;;1.80;0.53;;;15.30;30.80;;;;;;10362611;28;20252;-71
2023/03/10 14:40:50;;;;;;;0.70;0.50;;;15.20;30.90;;;;;;10356153;28;20750;-71
2023/03/10 14:45:57;;;;;;;0.43;0.43;;;15.10;31.10;;;;;;10357417;28;20230;-70
2023/03/10 14:51:01;;;;;;;0.60;0.60;;;15.10;31.20;;;;;;10355063;28;20239;-71
2023/03/10 14:56:04;;;;;;;0.47;0.47;;;15.00;31.30;;;;;;10359316;28;20309;-70
2023/03/10 15:01:08;;;;;;;0.60;0.60;;;15.00;31.60;;;;;;10351601;28;20221;-70
2023/03/10 15:06:12;;;;;;;0.53;0.53;;;14.90;32.00;;;;;;10355777;28;20309;-71
2023/03/10 15:11:16;;;;;;;0.60;0.60;;;14.90;32.00;;;;;;10352584;28;20630;-74
2023/03/10 15:16:39;;;;;;;0.57;0.57;;;14.80;31.90;;;;;;10358585;28;20230;-70
2023/03/10 15:21:42;;;;;;;0.50;0.50;;;14.70;31.80;;;;;;10354587;28;20695;-70
2023/03/10 15:26:46;;;;;;;0.43;0.43;;;14.60;31.80;;;;;;10356161;28;20274;-70
2023/03/10 15:31:51;;;;;;;0.50;0.50;;;14.40;31.70;;;;;;10360242;28;20231;-70
2023/03/10 15:36:55;;;;;;;0.50;0.50;;;14.30;31.90;;;;;;10357045;28;20228;-70
2023/03/10 15:41:58;;;;;;;0.70;0.60;;;14.20;32.30;;;;;;10349149;28;20313;-71
2023/03/10 15:47:02;;;;;;;0.57;0.50;;;14.10;32.50;;;;;;10350504;28;20734;-70
2023/03/10 15:52:06;;;;;;;0.50;0.50;;;14.00;32.60;;;;;;10346141;28;20281;-71
2023/03/10 15:57:09;;;;;;;1.03;0.50;;;13.90;32.50;;;;;;10352161;28;20233;-71
2023/03/10 16:02:14;;;;;;;0.50;0.50;;;13.80;32.70;;;;;;10352854;28;20238;-70
2023/03/10 16:07:17;;;;;;;0.73;0.57;;;13.60;32.90;;;;;;10347422;28;20243;-70
2023/03/10 16:12:22;;;;;;;0.70;0.70;;;13.50;33.00;;;;;;10351872;28;20687;-71
2023/03/10 16:17:29;;;;;;;0.70;0.70;;;13.50;33.10;;;;;;10348927;28;20763;-71
2023/03/10 16:22:32;;;;;;;0.50;0.50;;;13.40;33.50;;;;;;10358124;28;20781;-71
2023/03/10 16:27:35;;;;;;;0.50;0.50;;;13.40;33.50;;;;;;10353617;28;20238;-70
2023/03/10 16:32:40;;;;;;;0.60;0.60;;;13.30;33.60;;;;;;10352211;28;20254;-71
2023/03/10 16:37:43;;;;;;;0.60;0.60;;;13.20;34.10;;;;;;10348652;28;20253;-70
2023/03/10 16:42:46;;;;;;;0.70;0.70;;;13.10;34.30;;;;;;10338698;28;20231;-70
2023/03/10 16:47:51;;;;;;;0.50;0.50;;;13.10;34.20;;;;;;10340327;28;20239;-70
2023/03/10 16:52:55;;;;;;;0.50;0.50;;;13.00;34.50;;;;;;10344244;28;20709;-71
2023/03/10 16:57:58;;;;;;;0.50;0.50;;;12.90;34.30;;;;;;10342559;28;20238;-71
2023/03/10 17:03:03;;;;;;;0.97;0.70;;;12.90;34.50;;;;;;10343071;28;20699;-70
2023/03/10 17:08:07;;;;;;;0.50;0.50;;;12.90;34.60;;;;;;10346223;28;20226;-70
2023/03/10 17:13:10;;;;;;;0.50;0.50;;;12.90;34.50;;;;;;10342252;28;20682;-70
2023/03/10 17:18:16;;;;;;;2.97;1.87;;;12.80;34.50;;;;;;10343063;28;20235;-70
2023/03/10 17:23:21;;;;;;;0.97;0.90;;;12.80;35.20;;;;;;10353615;28;20609;-70
2023/03/10 17:28:24;;;;;;;1.07;0.97;;;12.80;35.40;;;;;;10345427;28;20706;-71
2023/03/10 17:33:28;;;;;;;0.70;0.70;;;12.80;35.80;;;;;;10354462;28;20231;-70
2023/03/10 17:38:31;;;;;;;0.50;0.50;;;12.50;35.70;;;;;;10347476;28;20234;-71
2023/03/10 17:43:35;;;;;;;1.20;0.80;;;12.20;34.70;;;;;;10349487;28;20226;-71
2023/03/10 17:48:40;;;;;;;0.60;0.60;;;12.00;35.00;;;;;;10346955;28;20606;-70
2023/03/10 17:53:44;;;;;;;0.60;0.60;;;11.80;35.40;;;;;;10355311;28;20237;-70
2023/03/10 17:58:47;;;;;;;1.70;0.70;;;11.70;35.40;;;;;;10352615;28;20226;-72
2023/03/10 18:03:52;;;;;;;0.80;0.80;;;11.60;35.70;;;;;;10357776;28;20719;-72
2023/03/10 18:08:56;;;;;;;0.70;0.70;;;11.50;36.20;;;;;;10357879;28;20237;-72
2023/03/10 18:14:00;;;;;;;0.90;0.80;;;11.40;36.00;;;;;;10354095;28;20226;-72
2023/03/10 18:19:09;;;;;;;1.10;0.90;;;11.40;36.10;;;;;;10352051;28;20234;-72
2023/03/10 18:24:13;;;;;;;1.70;1.20;;;11.30;36.00;;;;;;10357469;28;20707;-72
2023/03/10 18:29:17;;;;;;;2.90;1.50;;;11.30;35.30;;;;;;10348409;28;20231;-73
2023/03/10 18:34:21;;;;;;;2.33;1.83;;;11.20;35.00;;;;;;10355715;28;20629;-72
2023/03/10 18:39:24;;;;;;;2.13;1.30;;;11.20;35.10;;;;;;10351040;28;20230;-72
2023/03/10 18:44:28;;;;;;;1.87;1.40;;;11.10;34.80;;;;;;10354013;28;20245;-72
2023/03/10 18:49:32;;;;;;;2.13;1.67;;;11.00;34.80;;;;;;10357362;28;20257;-72
2023/03/10 18:54:35;;;;;;;2.40;1.53;;;10.90;35.10;;;;;;10350981;28;20238;-72
2023/03/10 18:59:38;;;;;;;1.50;1.30;;;10.80;34.90;;;;;;10358728;28;20231;-72
2023/03/10 19:04:46;;;;;;;1.73;1.10;;;10.70;34.80;;;;;;10353246;28;20735;-72
2023/03/10 19:09:53;;;;;;;1.73;0.90;;;10.60;35.00;;;;;;10356214;28;20662;-72
2023/03/10 19:14:58;;;;;;;3.57;1.77;;;10.50;35.20;;;;;;10355738;28;20314;-72
2023/03/10 19:20:03;;;;;;;1.73;0.93;;;10.50;34.90;;;;;;10352449;28;20238;-72
2023/03/10 19:25:09;;;;;;;1.07;0.90;;;10.40;35.10;;;;;;10356424;28;20228;-72
2023/03/10 19:30:15;;;;;;;1.70;0.97;;;10.30;35.30;;;;;;10345231;28;20269;-72
2023/03/10 19:35:19;;;;;;;1.10;1.00;;;10.30;35.40;;;;;;10346098;28;20234;-73
2023/03/10 19:40:23;;;;;;;1.00;0.90;;;10.20;35.50;;;;;;10343115;28;20237;-73
2023/03/10 19:45:26;;;;;;;4.40;3.40;;;10.10;35.00;;;;;;10352823;28;20218;-72
2023/03/10 19:50:30;;;;;;;2.77;1.00;;;10.10;34.90;;;;;;10350489;28;20233;-73
2023/03/10 19:55:34;;;;;;;1.90;1.13;;;10.10;34.80;;;;;;10345105;28;20659;-73
2023/03/10 20:00:37;;;;;;;1.57;1.03;;;10.10;34.50;;;;;;10344771;28;20625;-73
2023/03/10 20:05:42;;;;;;;2.90;1.00;;;10.00;34.50;;;;;;10343709;28;20223;-73
2023/03/10 20:10:45;;;;;;;2.77;1.30;;;10.00;34.50;;;;;;10345446;28;20235;-73
2023/03/10 20:15:48;;;;;;;1.93;1.10;;;10.00;34.50;;;;;;10345101;28;20233;-73
2023/03/10 20:20:53;;;;;;;2.87;1.20;;;9.90;35.50;;;;;;10344886;28;20253;-72
2023/03/10 20:26:00;;;;;;;3.57;1.50;;;9.80;35.60;;;;;;10345878;28;20221;-73
2023/03/10 20:31:03;;;;;;;2.97;1.50;;;9.80;35.80;;;;;;10341453;28;20609;-72
2023/03/10 20:36:12;;;;;;;2.13;1.40;;;9.80;35.80;;;;;;10344438;28;20224;-72
2023/03/10 20:41:17;;;;;;;1.50;1.30;;;9.80;35.90;;;;;;10344079;28;20253;-73
2023/03/10 20:46:21;;;;;;;2.37;1.33;;;9.80;35.80;;;;;;10348358;28;20237;-73
2023/03/10 20:51:26;;;;;;;1.50;1.40;;;9.80;35.80;;;;;;10349256;28;20226;-73
2023/03/10 20:56:29;;;;;;;1.50;1.40;;;9.90;35.90;;;;;;10349322;28;20986;-73
2023/03/10 21:01:38;;;;;;;1.90;1.33;;;9.80;35.80;;;;;;10356451;28;20242;-72
2023/03/10 21:06:42;;;;;;;1.47;1.33;;;9.90;35.90;;;;;;10352815;28;20230;-72
2023/03/10 21:11:45;;;;;;;1.50;1.43;;;9.90;35.80;;;;;;10347059;28;20281;-73
2023/03/10 21:16:48;;;;;;;1.40;1.30;;;9.70;35.60;;;;;;10348102;28;20248;-73
2023/03/10 21:21:53;;;;;;;1.50;1.40;;;9.70;35.50;;;;;;10346802;28;20248;-72
2023/03/10 21:26:56;;;;;;;1.27;1.17;;;9.60;35.30;;;;;;10346055;28;20237;-72
2023/03/10 21:32:00;;;;;;;1.67;1.30;;;9.40;35.20;;;;;;10348546;28;20222;-69
2023/03/10 21:37:04;;;;;;;1.80;1.20;;;9.40;35.30;;;;;;10348503;28;20833;-69
2023/03/10 21:42:08;;;;;;;1.90;1.40;;;9.30;35.20;;;;;;10347712;28;20457;-72
2023/03/10 21:47:11;;;;;;;1.23;1.20;;;9.20;35.40;;;;;;10345760;28;20567;-72
2023/03/10 21:52:16;;;;;;;1.10;1.00;;;9.20;35.40;;;;;;10350387;28;20529;-72
2023/03/10 21:57:19;;;;;;;1.33;1.20;;;9.20;35.50;;;;;;10339658;28;20238;-72
2023/03/10 22:02:26;;;;;;;1.20;1.10;;;9.10;35.60;;;;;;10400798;23;20252;-70
2023/03/10 22:07:31;;;;;;;0.87;0.87;;;8.90;36.10;;;;;;10399459;28;20229;-70
2023/03/10 22:12:34;;;;;;;1.10;1.10;;;8.70;36.10;;;;;;10398726;28;20730;-70
2023/03/10 22:17:37;;;;;;;1.30;1.20;;;8.40;36.30;;;;;;10400211;28;20769;-71
2023/03/10 22:22:42;;;;;;;1.47;1.20;;;8.20;36.60;;;;;;10402305;28;20233;-71
2023/03/10 22:27:49;;;;;;;1.03;1.00;;;8.00;36.90;;;;;;10402429;28;20232;-70
2023/03/10 22:32:52;;;;;;;1.20;1.10;;;7.80;36.90;;;;;;10403566;28;20240;-70
2023/03/10 22:37:57;;;;;;;1.40;1.30;;;7.50;36.10;;;;;;10406123;28;20233;-71
2023/03/10 22:43:00;;;;;;;4.17;1.50;;;7.30;36.20;;;;;;10405905;28;20409;-71
2023/03/10 22:48:05;;;;;;;1.60;1.50;;;7.00;36.10;;;;;;10406251;28;20230;-71
2023/03/10 22:53:14;;;;;;;1.60;1.50;;;6.90;36.30;;;;;;10401016;28;20439;-71
2023/03/10 22:58:17;;;;;;;1.60;1.50;;;6.70;36.40;;;;;;10400483;28;20232;-71
2023/03/10 23:03:20;;;;;;;1.63;1.53;;;6.70;36.00;;;;;;10405611;28;20252;-71
2023/03/10 23:08:25;;;;;;;1.50;1.40;;;6.70;36.20;;;;;;10404710;28;20346;-71
2023/03/10 23:13:28;;;;;;;1.47;1.37;;;6.60;36.20;;;;;;10406290;28;20232;-71
2023/03/10 23:18:31;;;;;;;1.20;1.20;;;6.60;36.10;;;;;;10402194;28;20240;-71
2023/03/10 23:23:38;;;;;;;0.90;0.90;;;6.60;35.80;;;;;;10404898;28;20229;-71
2023/03/10 23:28:41;;;;;;;1.13;1.10;;;6.60;35.10;;;;;;10400693;28;20807;-71
2023/03/10 23:33:44;;;;;;;0.90;0.90;;;6.70;35.00;;;;;;10399713;28;20603;-71
2023/03/10 23:38:49;;;;;;;1.17;1.10;;;6.70;34.50;;;;;;10399985;28;20225;-71
2023/03/10 23:43:52;;;;;;;1.00;1.00;;;6.70;34.10;;;;;;10401684;28;20320;-71
2023/03/10 23:48:55;;;;;;;1.20;1.10;;;6.60;34.20;;;;;;10400318;28;20232;-71
2023/03/10 23:53:59;;;;;;;1.00;1.00;;;6.60;34.20;;;;;;10403485;28;20225;-71
2023/03/10 23:59:03;;;;;;;1.00;1.00;;;6.60;33.50;;;;;;10398950;28;20225;-71
